createdAt,value
2019-05-20T00:01:49.821Z,3.27
2019-05-20T00:04:17.719Z,3.50
2019-05-20T00:06:44.446Z,3.30
2019-05-20T00:09:12.234Z,2.77
2019-05-20T00:11:38.890Z,3.60
2019-05-20T00:14:05.943Z,3.40
2019-05-20T00:16:33.066Z,3.13
2019-05-20T00:18:59.815Z,4.20
2019-05-20T00:21:26.659Z,3.33
2019-05-20T00:23:53.241Z,3.33
2019-05-20T00:26:20.005Z,2.93
2019-05-20T00:28:47.089Z,3.37
2019-05-20T00:31:13.946Z,2.87
2019-05-20T00:33:40.821Z,3.20
2019-05-20T00:36:07.699Z,3.57
2019-05-20T00:38:35.681Z,4.03
2019-05-20T00:41:02.669Z,3.67
2019-05-20T00:43:29.383Z,3.37
2019-05-20T00:45:56.178Z,3.20
2019-05-20T00:48:22.821Z,3.40
2019-05-20T00:50:51.254Z,3.50
2019-05-20T00:53:18.382Z,3.17
2019-05-20T00:55:45.713Z,3.70
2019-05-20T00:58:15.098Z,3.83
2019-05-20T01:00:43.232Z,3.57
2019-05-20T01:03:13.402Z,3.67
2019-05-20T01:05:40.631Z,3.80
2019-05-20T01:08:07.354Z,3.57
2019-05-20T01:10:34.202Z,3.33
2019-05-20T01:13:00.852Z,3.67
2019-05-20T01:15:27.695Z,3.47
2019-05-20T01:17:54.408Z,3.53
2019-05-20T01:20:21.489Z,3.33
2019-05-20T01:22:48.231Z,3.77
2019-05-20T01:25:15.051Z,3.57
2019-05-20T01:27:41.859Z,3.37
2019-05-20T01:30:11.494Z,3.83
2019-05-20T01:32:39.508Z,3.13
2019-05-20T01:35:07.931Z,3.07
2019-05-20T01:37:34.849Z,3.60
2019-05-20T01:40:02.326Z,3.20
2019-05-20T01:42:30.220Z,3.90
2019-05-20T01:44:56.821Z,3.93
2019-05-20T01:47:24.259Z,3.30
2019-05-20T01:49:50.965Z,2.97
2019-05-20T01:52:17.692Z,4.93
2019-05-20T01:54:44.577Z,3.67
2019-05-20T01:57:11.294Z,3.47
2019-05-20T01:59:37.944Z,4.27
2019-05-20T02:02:05.960Z,3.67
2019-05-20T02:04:33.015Z,3.57
2019-05-20T02:06:59.694Z,4.10
2019-05-20T02:09:27.423Z,3.03
2019-05-20T02:11:54.322Z,4.17
2019-05-20T02:14:23.124Z,3.80
2019-05-20T02:16:51.118Z,4.17
2019-05-20T02:19:17.998Z,4.27
2019-05-20T02:21:44.616Z,4.30
2019-05-20T02:24:11.726Z,4.10
2019-05-20T02:26:39.815Z,4.00
2019-05-20T02:29:06.638Z,3.90
2019-05-20T02:31:33.448Z,4.10
2019-05-20T02:34:02.077Z,4.20
2019-05-20T02:36:28.768Z,4.93
2019-05-20T02:38:55.348Z,4.03
2019-05-20T02:41:25.082Z,4.17
2019-05-20T02:43:53.063Z,4.70
2019-05-20T02:46:19.919Z,4.53
2019-05-20T02:48:47.719Z,4.27
2019-05-20T02:51:16.433Z,4.20
2019-05-20T02:53:43.141Z,4.80
2019-05-20T02:56:09.760Z,4.23
2019-05-20T02:58:36.342Z,4.90
2019-05-20T03:01:06.088Z,3.87
2019-05-20T03:03:32.890Z,4.70
2019-05-20T03:05:59.475Z,4.20
2019-05-20T03:08:26.456Z,4.37
2019-05-20T03:10:53.187Z,4.47
2019-05-20T03:13:19.970Z,4.30
2019-05-20T03:15:46.590Z,4.60
2019-05-20T03:18:13.694Z,5.13
2019-05-20T03:20:41.750Z,4.20
2019-05-20T03:23:09.712Z,5.13
2019-05-20T03:25:36.537Z,4.50
2019-05-20T03:28:03.358Z,3.77
2019-05-20T03:30:31.253Z,4.33
2019-05-20T03:32:58.404Z,4.53
2019-05-20T03:35:25.321Z,3.93
2019-05-20T03:37:52.371Z,4.53
2019-05-20T03:40:19.931Z,4.40
2019-05-20T03:42:47.187Z,4.70
2019-05-20T03:45:14.087Z,4.30
2019-05-20T03:47:41.360Z,4.50
2019-05-20T03:50:08.497Z,4.10
2019-05-20T03:52:35.187Z,4.40
2019-05-20T03:55:05.664Z,4.40
2019-05-20T03:57:32.298Z,4.40
2019-05-20T03:59:59.606Z,3.97
2019-05-20T04:02:26.265Z,4.17
2019-05-20T04:05:02.398Z,4.70
2019-05-20T04:07:25.368Z,4.50
2019-05-20T04:09:52.361Z,4.17
2019-05-20T04:12:19.246Z,4.53
2019-05-20T04:14:49.051Z,4.33
2019-05-20T04:17:15.836Z,4.57
2019-05-20T04:19:43.845Z,4.40
2019-05-20T04:22:10.465Z,4.40
2019-05-20T04:24:37.095Z,4.30
2019-05-20T04:27:03.772Z,3.77
2019-05-20T04:29:30.347Z,4.20
2019-05-20T04:31:57.148Z,4.77
2019-05-20T04:35:23.426Z,4.03
2019-05-20T04:37:50.607Z,4.47
2019-05-20T04:40:19.921Z,4.50
2019-05-20T04:42:46.827Z,4.30
2019-05-20T04:45:16.249Z,3.67
2019-05-20T04:47:43.808Z,3.87
2019-05-20T04:50:11.415Z,4.47
2019-05-20T04:52:38.040Z,4.03
2019-05-20T04:55:06.889Z,3.40
2019-05-20T04:57:33.533Z,4.70
2019-05-20T05:00:00.173Z,4.23
2019-05-20T05:02:27.054Z,4.23
2019-05-20T05:04:53.727Z,3.90
2019-05-20T05:07:20.948Z,3.97
2019-05-20T05:09:48.894Z,3.90
2019-05-20T05:12:15.992Z,3.97
2019-05-20T05:14:42.919Z,3.73
2019-05-20T05:17:11.463Z,3.80
2019-05-20T05:19:38.742Z,4.63
2019-05-20T05:22:05.637Z,3.87
2019-05-20T05:24:33.053Z,3.97
2019-05-20T05:26:59.860Z,3.70
2019-05-20T05:29:26.644Z,3.93
2019-05-20T05:31:53.633Z,3.50
2019-05-20T05:34:20.385Z,4.00
2019-05-20T05:36:47.754Z,4.40
2019-05-20T05:39:14.799Z,3.57
2019-05-20T05:41:42.889Z,4.07
2019-05-20T05:44:09.869Z,4.17
2019-05-20T05:46:36.724Z,3.20
2019-05-20T05:49:04.654Z,3.70
2019-05-20T05:51:31.552Z,3.60
2019-05-20T05:54:00.483Z,4.43
2019-05-20T05:56:27.260Z,4.10
2019-05-20T05:58:53.854Z,3.97
2019-05-20T06:01:20.690Z,3.80
2019-05-20T06:03:47.542Z,4.07
2019-05-20T06:06:14.185Z,4.10
2019-05-20T06:08:42.111Z,3.60
2019-05-20T06:11:10.063Z,3.80
2019-05-20T06:13:37.224Z,3.70
2019-05-20T06:16:04.272Z,3.77
2019-05-20T06:19:28.541Z,3.63
2019-05-20T06:21:56.536Z,3.90
2019-05-20T06:25:21.629Z,3.70
2019-05-20T06:27:48.342Z,3.00
2019-05-20T06:30:16.782Z,4.40
2019-05-20T06:32:43.754Z,3.30
2019-05-20T06:35:12.979Z,3.53
2019-05-20T06:37:43.113Z,3.37
2019-05-20T06:40:11.035Z,3.20
2019-05-20T06:42:37.951Z,3.17
2019-05-20T06:45:06.437Z,3.70
2019-05-20T06:47:34.259Z,3.40
2019-05-20T06:50:04.122Z,3.63
2019-05-20T06:52:35.719Z,3.17
2019-05-20T06:54:59.817Z,3.57
2019-05-20T06:57:26.462Z,3.97
2019-05-20T06:59:53.302Z,3.30
2019-05-20T07:02:23.406Z,2.90
2019-05-20T07:04:50.567Z,3.53
2019-05-20T07:07:21.005Z,3.87
2019-05-20T07:09:46.325Z,2.93
2019-05-20T07:12:12.978Z,2.67
2019-05-20T07:14:39.533Z,3.00
2019-05-20T07:17:08.177Z,2.73
2019-05-20T07:20:31.531Z,3.03
2019-05-20T07:22:58.307Z,3.63
2019-05-20T07:25:25.508Z,3.20
2019-05-20T07:27:53.390Z,2.70
2019-05-20T07:30:20.851Z,3.00
2019-05-20T07:32:52.319Z,3.20
2019-05-20T07:35:29.776Z,3.33
2019-05-20T07:37:48.702Z,3.33
2019-05-20T07:40:21.054Z,3.53
2019-05-20T07:42:49.091Z,3.40
2019-05-20T07:45:16.138Z,3.90
2019-05-20T07:47:43.128Z,3.30
2019-05-20T07:50:12.082Z,3.23
2019-05-20T07:52:39.342Z,3.00
2019-05-20T07:55:08.004Z,3.13
2019-05-20T07:57:39.915Z,3.53
2019-05-20T08:00:09.768Z,2.83
2019-05-20T08:02:36.992Z,3.03
2019-05-20T08:05:07.648Z,3.10
2019-05-20T08:07:50.659Z,3.80
2019-05-20T08:10:06.211Z,4.73
2019-05-20T08:12:34.397Z,3.40
2019-05-20T08:15:03.886Z,3.30
2019-05-20T08:17:30.817Z,3.37
2019-05-20T08:19:58.865Z,2.80
2019-05-20T08:22:26.065Z,3.07
2019-05-20T08:24:53.236Z,3.10
2019-05-20T08:27:21.490Z,3.27
2019-05-20T08:29:49.842Z,3.27
2019-05-20T08:32:17.761Z,2.50
2019-05-20T08:34:44.867Z,5.43
2019-05-20T08:37:11.560Z,3.00
2019-05-20T08:39:39.783Z,3.13
2019-05-20T08:42:08.993Z,3.00
2019-05-20T08:44:35.891Z,3.07
2019-05-20T08:47:04.459Z,3.17
2019-05-20T08:49:32.445Z,3.00
2019-05-20T08:51:59.519Z,2.97
2019-05-20T08:54:26.397Z,3.30
2019-05-20T08:56:54.207Z,3.10
2019-05-20T08:59:25.635Z,3.03
2019-05-20T09:01:53.667Z,2.90
2019-05-20T09:04:20.447Z,3.30
2019-05-20T09:06:47.522Z,3.50
2019-05-20T09:09:15.690Z,2.97
2019-05-20T09:11:47.280Z,3.33
2019-05-20T09:14:12.084Z,3.03
2019-05-20T09:16:40.128Z,3.20
2019-05-20T09:19:07.270Z,3.03
2019-05-20T09:21:33.933Z,3.10
2019-05-20T09:24:02.129Z,2.50
2019-05-20T09:26:28.921Z,2.43
2019-05-20T09:28:58.340Z,3.20
2019-05-20T09:31:26.674Z,3.47
2019-05-20T09:33:53.453Z,2.67
2019-05-20T09:36:20.491Z,3.07
2019-05-20T09:38:47.547Z,3.23
2019-05-20T09:41:14.327Z,3.00
2019-05-20T09:43:41.459Z,3.00
2019-05-20T09:46:08.539Z,3.23
2019-05-20T09:48:35.762Z,2.80
2019-05-20T09:51:03.599Z,2.83
2019-05-20T09:53:30.580Z,2.97
2019-05-20T09:55:57.533Z,3.07
2019-05-20T09:58:24.304Z,3.10
2019-05-20T10:00:51.345Z,3.70
2019-05-20T10:03:18.648Z,4.83
2019-05-20T10:05:46.511Z,3.43
2019-05-20T10:08:13.315Z,2.90
2019-05-20T10:10:40.260Z,3.27
2019-05-20T10:13:08.571Z,3.53
2019-05-20T10:15:36.076Z,3.30
2019-05-20T10:18:03.055Z,3.50
2019-05-20T10:20:29.646Z,3.90
2019-05-20T10:22:57.393Z,3.60
2019-05-20T10:25:24.337Z,3.00
2019-05-20T10:27:51.375Z,3.53
2019-05-20T10:30:20.256Z,3.20
2019-05-20T10:32:49.453Z,3.27
2019-05-20T10:35:16.802Z,4.23
2019-05-20T10:37:43.724Z,3.37
2019-05-20T10:40:12.831Z,3.60
2019-05-20T10:42:39.682Z,3.60
2019-05-20T10:45:07.254Z,3.33
2019-05-20T10:47:35.149Z,3.53
2019-05-20T10:50:05.856Z,3.40
2019-05-20T10:52:32.605Z,3.07
2019-05-20T10:54:59.488Z,3.63
2019-05-20T10:57:26.573Z,3.90
2019-05-20T10:59:53.354Z,3.83
2019-05-20T11:02:20.380Z,3.70
2019-05-20T11:04:47.270Z,3.80
2019-05-20T11:07:15.266Z,3.47
2019-05-20T11:09:41.857Z,3.90
2019-05-20T11:12:09.832Z,3.53
2019-05-20T11:14:36.671Z,4.33
2019-05-20T11:17:03.730Z,4.40
2019-05-20T11:19:30.770Z,3.60
2019-05-20T11:21:57.442Z,3.73
2019-05-20T11:24:26.670Z,3.90
2019-05-20T11:26:54.517Z,4.33
2019-05-20T11:29:21.735Z,4.60
2019-05-20T11:31:48.867Z,3.80
2019-05-20T11:34:15.671Z,4.30
2019-05-20T11:36:42.565Z,4.03
2019-05-20T11:39:11.507Z,4.07
2019-05-20T11:41:52.874Z,3.90
2019-05-20T11:44:11.786Z,4.50
2019-05-20T11:46:37.012Z,4.00
2019-05-20T11:49:03.927Z,4.00
2019-05-20T11:51:31.859Z,4.10
2019-05-20T11:53:58.995Z,4.80
2019-05-20T11:56:27.088Z,4.23
2019-05-20T11:58:53.907Z,3.83
2019-05-20T12:01:20.977Z,3.90
2019-05-20T12:03:47.795Z,4.93
2019-05-20T12:06:15.775Z,4.60
2019-05-20T12:08:42.662Z,4.17
2019-05-20T12:11:09.622Z,4.90
2019-05-20T12:13:36.589Z,4.97
2019-05-20T12:16:04.958Z,5.30
2019-05-20T12:18:31.774Z,5.23
2019-05-20T12:20:59.431Z,4.97
2019-05-20T12:23:27.438Z,5.07
2019-05-20T12:25:56.462Z,5.47
2019-05-20T12:28:23.216Z,5.17
2019-05-20T12:30:51.466Z,5.13
2019-05-20T12:33:19.503Z,5.07
2019-05-20T12:35:47.101Z,4.83
2019-05-20T12:38:13.794Z,4.80
2019-05-20T12:40:41.979Z,4.73
2019-05-20T12:43:08.689Z,4.10
2019-05-20T12:45:36.730Z,4.07
2019-05-20T12:48:03.813Z,4.33
2019-05-20T12:50:31.102Z,4.63
2019-05-20T12:52:58.168Z,4.53
2019-05-20T12:55:24.941Z,3.47
2019-05-20T12:57:52.353Z,4.13
2019-05-20T13:00:22.178Z,3.73
2019-05-20T13:02:50.057Z,4.30
2019-05-20T13:05:18.179Z,3.80
2019-05-20T13:07:46.394Z,3.80
2019-05-20T13:10:29.261Z,4.20
2019-05-20T13:12:43.177Z,3.77
2019-05-20T13:15:12.470Z,3.97
2019-05-20T13:17:45.462Z,3.70
2019-05-20T13:20:14.230Z,3.97
2019-05-20T13:22:41.255Z,3.90
2019-05-20T13:25:09.067Z,3.80
2019-05-20T13:27:35.732Z,3.80
2019-05-20T13:30:06.446Z,3.83
2019-05-20T13:32:33.559Z,3.80
2019-05-20T13:35:00.898Z,3.97
2019-05-20T13:37:27.470Z,3.73
2019-05-20T13:39:54.518Z,3.57
2019-05-20T13:42:22.534Z,3.40
2019-05-20T13:44:49.288Z,3.47
2019-05-20T13:47:17.193Z,3.97
2019-05-20T13:49:45.105Z,3.47
2019-05-20T13:52:11.921Z,3.23
2019-05-20T13:54:39.174Z,3.17
2019-05-20T13:57:07.109Z,2.57
2019-05-20T13:59:33.938Z,3.70
2019-05-20T14:02:02.086Z,2.50
2019-05-20T14:04:28.693Z,3.13
2019-05-20T14:06:55.738Z,2.43
2019-05-20T14:09:23.755Z,3.20
2019-05-20T14:11:51.225Z,3.03
2019-05-20T14:14:19.089Z,2.53
2019-05-20T14:16:45.896Z,2.57
2019-05-20T14:19:13.771Z,2.67
2019-05-20T14:21:40.474Z,2.60
2019-05-20T14:24:09.430Z,3.37
2019-05-20T14:26:36.882Z,2.60
2019-05-20T14:29:03.631Z,3.23
2019-05-20T14:31:30.845Z,3.20
2019-05-20T14:33:57.779Z,3.53
2019-05-20T14:36:38.753Z,3.40
2019-05-20T14:38:53.243Z,3.07
2019-05-20T14:41:22.356Z,3.40
2019-05-20T14:43:49.539Z,3.10
2019-05-20T14:46:16.309Z,3.30
2019-05-20T14:48:43.610Z,3.73
2019-05-20T14:51:11.680Z,3.97
2019-05-20T14:53:38.361Z,3.47
2019-05-20T14:56:06.129Z,3.40
2019-05-20T14:58:33.206Z,3.60
2019-05-20T15:01:00.324Z,3.33
2019-05-20T15:03:29.433Z,2.60
2019-05-20T15:05:57.345Z,3.27
2019-05-20T15:08:24.153Z,3.27
2019-05-20T15:10:50.842Z,3.20
2019-05-20T15:13:17.856Z,3.60
2019-05-20T15:15:48.384Z,3.73
2019-05-20T15:18:14.421Z,4.20
2019-05-20T15:20:41.343Z,3.27
2019-05-20T15:23:09.349Z,3.90
2019-05-20T15:25:36.507Z,3.60
2019-05-20T15:28:07.724Z,3.23
2019-05-20T15:30:35.522Z,3.57
2019-05-20T15:33:03.625Z,3.70
2019-05-20T15:35:32.578Z,3.63
2019-05-20T15:38:00.746Z,3.83
2019-05-20T15:40:29.871Z,3.53
2019-05-20T15:42:56.940Z,3.93
2019-05-20T15:45:23.776Z,3.57
2019-05-20T15:47:51.870Z,3.50
2019-05-20T15:50:19.138Z,3.77
2019-05-20T15:52:46.293Z,4.47
2019-05-20T15:55:13.514Z,3.77
2019-05-20T15:57:41.580Z,3.70
2019-05-20T16:00:12.617Z,3.97
2019-05-20T16:02:39.642Z,3.80
2019-05-20T16:05:07.893Z,3.70
2019-05-20T16:07:34.805Z,3.60
2019-05-20T16:10:02.908Z,3.90
2019-05-20T16:12:33.741Z,3.70
2019-05-20T16:14:59.374Z,4.07
2019-05-20T16:17:26.222Z,3.77
2019-05-20T16:19:53.377Z,3.93
2019-05-20T16:22:20.479Z,3.80
2019-05-20T16:24:47.790Z,3.67
2019-05-20T16:27:15.542Z,4.20
2019-05-20T16:29:42.903Z,4.10
2019-05-20T16:32:09.870Z,3.87
2019-05-20T16:34:36.691Z,3.97
2019-05-20T16:37:03.611Z,4.47
2019-05-20T16:39:31.695Z,3.40
2019-05-20T16:41:58.904Z,3.97
2019-05-20T16:44:25.719Z,3.53
2019-05-20T16:46:52.801Z,3.90
2019-05-20T16:49:19.630Z,4.20
2019-05-20T16:51:50.499Z,4.03
2019-05-20T16:54:22.057Z,3.90
2019-05-20T16:56:48.955Z,3.90
2019-05-20T16:59:17.099Z,3.77
2019-05-20T17:01:46.528Z,4.90
2019-05-20T17:04:13.042Z,4.30
2019-05-20T17:06:39.801Z,4.50
2019-05-20T17:09:07.166Z,4.50
2019-05-20T17:11:34.211Z,4.87
2019-05-20T17:14:00.797Z,4.07
2019-05-20T17:16:27.581Z,4.30
2019-05-20T17:18:55.392Z,4.57
2019-05-20T17:21:23.451Z,3.63
2019-05-20T17:23:51.233Z,4.23
2019-05-20T17:26:18.109Z,4.10
2019-05-20T17:28:45.533Z,3.87
2019-05-20T17:31:12.579Z,3.93
2019-05-20T17:33:40.961Z,4.37
2019-05-20T17:36:08.354Z,4.27
2019-05-20T17:38:36.247Z,4.30
2019-05-20T17:41:04.380Z,4.47
2019-05-20T17:43:31.779Z,4.47
2019-05-20T17:45:59.034Z,4.60
2019-05-20T17:48:27.132Z,4.50
2019-05-20T17:50:53.979Z,5.17
2019-05-20T17:53:21.955Z,4.80
2019-05-20T17:55:49.829Z,5.63
2019-05-20T17:58:16.968Z,4.97
2019-05-20T18:00:45.157Z,5.47
2019-05-20T18:03:11.987Z,5.83
2019-05-20T18:05:39.858Z,5.23
2019-05-20T18:08:07.896Z,5.20
2019-05-20T18:10:36.755Z,5.03
2019-05-20T18:13:03.824Z,5.53
2019-05-20T18:15:30.914Z,5.10
2019-05-20T18:17:58.011Z,5.47
2019-05-20T18:20:24.811Z,5.43
2019-05-20T18:22:52.774Z,5.40
2019-05-20T18:25:20.804Z,5.60
2019-05-20T18:27:47.494Z,5.40
2019-05-20T18:30:15.485Z,4.87
2019-05-20T18:32:44.759Z,5.67
2019-05-20T18:35:12.488Z,5.60
2019-05-20T18:37:42.795Z,5.30
2019-05-20T18:40:14.366Z,6.40
2019-05-20T18:42:39.980Z,6.43
2019-05-20T18:45:07.439Z,5.90
2019-05-20T18:47:35.116Z,5.80
2019-05-20T18:50:05.888Z,6.20
2019-05-20T18:52:33.047Z,8.07
2019-05-20T18:55:01.440Z,6.07
2019-05-20T18:57:31.565Z,10.80
2019-05-20T18:59:58.737Z,6.20
2019-05-20T19:02:26.484Z,6.77
2019-05-20T19:04:53.277Z,7.17
2019-05-20T19:07:20.386Z,7.10
2019-05-20T19:09:47.246Z,6.53
2019-05-20T19:12:14.494Z,5.83
2019-05-20T19:14:42.092Z,6.50
2019-05-20T19:17:10.038Z,6.47
2019-05-20T19:19:37.232Z,6.80
2019-05-20T19:22:06.474Z,6.77
2019-05-20T19:24:33.518Z,6.07
2019-05-20T19:27:02.025Z,6.90
2019-05-20T19:29:31.398Z,7.13
2019-05-20T19:32:01.828Z,6.97
2019-05-20T19:34:29.441Z,6.67
2019-05-20T19:36:57.426Z,6.73
2019-05-20T19:39:24.904Z,6.20
2019-05-20T19:41:54.241Z,6.40
2019-05-20T19:44:22.126Z,7.00
2019-05-20T19:46:53.623Z,5.77
2019-05-20T19:49:22.864Z,5.47
2019-05-20T19:51:51.254Z,6.37
2019-05-20T19:54:18.911Z,6.40
2019-05-20T19:56:49.510Z,6.20
2019-05-20T19:59:16.777Z,6.17
2019-05-20T20:01:46.869Z,6.97
2019-05-20T20:04:13.974Z,6.40
2019-05-20T20:06:40.718Z,6.37
2019-05-20T20:09:07.837Z,7.03
2019-05-20T20:11:34.969Z,7.00
2019-05-20T20:14:02.300Z,6.90
2019-05-20T20:16:29.132Z,6.37
2019-05-20T20:18:58.293Z,6.03
2019-05-20T20:21:26.179Z,6.10
2019-05-20T20:23:52.989Z,6.33
2019-05-20T20:26:22.458Z,7.10
2019-05-20T20:28:49.826Z,5.97
2019-05-20T20:31:17.030Z,6.10
2019-05-20T20:33:44.441Z,6.03
2019-05-20T20:36:11.581Z,6.53
2019-05-20T20:38:38.872Z,6.33
2019-05-20T20:41:05.623Z,6.07
2019-05-20T20:43:32.494Z,6.73
2019-05-20T20:46:00.532Z,7.07
2019-05-20T20:48:27.592Z,6.70
2019-05-20T20:50:54.510Z,6.60
2019-05-20T20:53:21.596Z,6.60
2019-05-20T20:55:49.018Z,6.73
2019-05-20T20:58:16.222Z,7.10
2019-05-20T21:00:43.441Z,7.23
2019-05-20T21:03:10.210Z,6.77
2019-05-20T21:05:36.788Z,6.77
2019-05-20T21:08:03.724Z,6.80
2019-05-20T21:10:30.580Z,7.00
2019-05-20T21:12:57.272Z,7.63
2019-05-20T21:15:24.106Z,7.77
2019-05-20T21:17:50.909Z,7.73
2019-05-20T21:20:17.768Z,7.10
2019-05-20T21:22:44.469Z,7.73
2019-05-20T21:25:13.080Z,7.00
2019-05-20T21:27:39.897Z,7.50
2019-05-20T21:30:09.139Z,7.67
2019-05-20T21:32:36.265Z,7.50
2019-05-20T21:35:05.839Z,7.43
2019-05-20T21:37:33.075Z,7.97
2019-05-20T21:40:01.082Z,7.30
2019-05-20T21:42:27.951Z,7.60
2019-05-20T21:44:56.109Z,8.33
2019-05-20T21:47:22.739Z,8.13
2019-05-20T21:49:50.760Z,7.27
2019-05-20T21:52:18.808Z,7.70
2019-05-20T21:54:47.868Z,7.90
2019-05-20T21:57:14.912Z,8.23
2019-05-20T21:59:42.776Z,8.07
2019-05-20T22:02:10.345Z,7.73
2019-05-20T22:04:37.225Z,7.57
2019-05-20T22:07:04.197Z,9.27
2019-05-20T22:09:31.397Z,7.20
2019-05-20T22:11:58.059Z,7.57
2019-05-20T22:14:25.822Z,7.67
2019-05-20T22:16:53.736Z,7.17
2019-05-20T22:19:20.651Z,7.37
2019-05-20T22:21:49.147Z,7.47
2019-05-20T22:24:16.861Z,7.10
2019-05-20T22:26:43.706Z,6.93
2019-05-20T22:29:10.794Z,6.97
2019-05-20T22:31:37.371Z,6.40
2019-05-20T22:34:04.511Z,6.10
2019-05-20T22:36:32.314Z,6.27
2019-05-20T22:39:00.058Z,5.97
2019-05-20T22:41:27.055Z,5.03
2019-05-20T22:43:53.917Z,5.97
2019-05-20T22:46:20.607Z,6.30
2019-05-20T22:48:47.269Z,5.83
2019-05-20T22:51:15.245Z,5.13
2019-05-20T22:53:41.812Z,5.40
2019-05-20T22:57:04.993Z,5.07
2019-05-20T22:59:31.856Z,5.20
2019-05-20T23:01:59.773Z,4.73
2019-05-20T23:04:27.381Z,4.23
2019-05-20T23:06:54.459Z,4.97
2019-05-20T23:09:22.325Z,4.83
2019-05-20T23:11:48.917Z,4.73
2019-05-20T23:14:15.521Z,4.57
2019-05-20T23:16:42.595Z,5.17
2019-05-20T23:19:09.348Z,4.70
2019-05-20T23:21:35.968Z,4.37
2019-05-20T23:24:04.840Z,4.43
2019-05-20T23:26:31.927Z,3.90
2019-05-20T23:28:58.727Z,3.73
2019-05-20T23:31:27.019Z,4.73
2019-05-20T23:33:54.657Z,3.33
2019-05-20T23:36:21.398Z,4.20
2019-05-20T23:38:48.116Z,3.80
2019-05-20T23:41:16.069Z,3.70
2019-05-20T23:43:43.029Z,3.67
2019-05-20T23:46:09.815Z,3.53
2019-05-20T23:48:36.420Z,3.77
2019-05-20T23:51:03.296Z,3.53
2019-05-20T23:53:29.937Z,3.67
2019-05-20T23:55:56.652Z,3.53
2019-05-20T23:58:23.501Z,3.80
